createdAt,value
2018-09-10T17:52:54.424Z,5544.00
2018-09-10T17:54:57.779Z,5500.00
2018-09-10T17:55:57.815Z,5480.00
2018-09-10T17:56:57.829Z,5460.00
2018-09-10T17:57:58.054Z,5452.00
2018-09-10T17:58:57.861Z,5428.00
2018-09-10T17:59:57.878Z,5408.00
2018-09-10T18:00:57.907Z,5396.00
2018-09-10T18:01:57.912Z,5372.00
2018-09-10T18:02:57.938Z,5348.00
2018-09-10T18:03:58.200Z,5304.00
2018-09-10T18:04:57.979Z,5284.00
2018-09-10T18:05:58.013Z,5272.00
2018-09-10T18:06:58.021Z,5256.00
2018-09-10T18:07:58.033Z,5236.00
2018-09-10T18:08:58.054Z,5200.00
2018-09-10T18:09:58.063Z,5188.00
2018-09-10T18:10:58.209Z,5168.00
2018-09-10T18:11:58.103Z,5164.00
2018-09-10T18:12:58.124Z,5152.00
2018-09-10T18:13:58.287Z,5140.00
2018-09-10T18:14:58.165Z,5120.00
2018-09-10T18:15:58.181Z,5112.00
2018-09-10T18:16:58.201Z,5100.00
2018-09-10T18:17:58.204Z,5092.00
2018-09-10T18:18:58.234Z,5072.00
2018-09-10T18:19:58.354Z,5048.00
2018-09-10T18:20:58.268Z,5032.00
2018-09-10T18:21:58.292Z,5016.00
2018-09-10T18:22:58.299Z,5008.00
2018-09-10T18:23:58.328Z,5004.00
2018-09-10T18:24:58.472Z,5012.00
2018-09-10T18:25:58.351Z,5024.00
2018-09-10T18:26:58.374Z,5032.00
2018-09-10T18:27:58.403Z,5048.00
2018-09-10T18:28:58.407Z,5028.00
2018-09-10T18:29:58.419Z,4984.00
2018-09-10T18:30:58.454Z,4944.00
2018-09-10T18:31:58.476Z,4928.00
2018-09-10T18:32:58.495Z,4920.00
2018-09-10T18:33:58.497Z,4908.00
2018-09-10T18:34:58.616Z,4916.00
2018-09-10T18:35:58.630Z,4896.00
2018-09-10T18:36:58.550Z,4860.00
2018-09-10T18:37:58.567Z,4844.00
2018-09-10T18:38:58.599Z,4804.00
2018-09-10T18:39:58.721Z,4704.00
2018-09-10T18:40:58.633Z,4604.00
2018-09-10T18:41:58.654Z,4524.00
2018-09-10T18:42:58.659Z,4524.00
2018-09-10T18:43:58.677Z,4456.00
2018-09-10T18:44:58.965Z,4432.00
2018-09-10T18:45:58.725Z,4388.00
2018-09-10T18:46:58.741Z,4340.00
2018-09-10T18:47:58.761Z,4316.00
2018-09-10T18:48:58.827Z,4304.00
2018-09-10T18:49:58.932Z,4284.00
2018-09-10T18:50:58.799Z,4268.00
2018-09-10T18:51:58.832Z,4272.00
2018-09-10T18:52:58.847Z,4276.00
2018-09-10T18:53:58.869Z,4308.00
2018-09-10T18:54:58.965Z,4336.00
2018-09-10T18:55:58.897Z,4368.00
2018-09-10T18:56:58.915Z,4404.00
2018-09-10T18:57:58.933Z,4436.00
2018-09-10T18:58:58.951Z,4432.00
2018-09-10T18:59:59.108Z,4436.00
2018-09-10T19:00:59.085Z,4400.00
2018-09-10T19:01:58.987Z,4372.00
2018-09-10T19:02:59.025Z,4356.00
2018-09-10T19:03:59.041Z,4336.00
2018-09-10T19:04:59.195Z,4288.00
2018-09-10T19:05:59.063Z,4280.00
2018-09-10T19:06:59.087Z,4248.00
2018-09-10T19:07:59.108Z,4228.00
2018-09-10T19:08:59.106Z,4200.00
2018-09-10T19:09:59.136Z,4160.00
2018-09-10T19:10:59.146Z,4132.00
2018-09-10T19:11:59.162Z,4088.00
2018-09-10T19:12:59.175Z,4052.00
2018-09-10T19:13:59.251Z,4020.00
2018-09-10T19:14:59.220Z,3984.00
2018-09-10T19:15:59.239Z,3944.00
2018-09-10T19:16:59.254Z,3936.00
2018-09-10T19:17:59.292Z,3884.00
2018-09-10T19:18:59.287Z,3852.00
2018-09-10T19:19:59.402Z,3820.00
2018-09-10T19:20:59.321Z,3788.00
2018-09-10T19:21:59.337Z,3764.00
2018-09-10T19:22:59.354Z,3768.00
2018-09-10T19:23:59.468Z,3760.00
2018-09-10T19:24:59.472Z,3732.00
2018-09-10T19:25:59.393Z,3696.00
2018-09-10T19:26:59.415Z,3648.00
2018-09-10T19:27:59.431Z,3612.00
2018-09-10T19:28:59.450Z,3588.00
2018-09-10T19:29:59.603Z,3568.00
2018-09-10T19:30:59.465Z,3500.00
2018-09-10T19:31:59.483Z,3476.00
2018-09-10T19:32:59.497Z,3432.00
2018-09-10T19:33:59.531Z,3372.00
2018-09-10T19:34:59.644Z,3344.00
2018-09-10T19:35:59.551Z,3316.00
2018-09-10T19:36:59.563Z,3304.00
2018-09-10T19:37:59.596Z,3268.00
2018-09-10T19:38:59.598Z,3228.00
2018-09-10T19:39:59.721Z,3188.00
2018-09-10T19:40:59.640Z,3152.00
2018-09-10T19:41:59.653Z,3140.00
2018-09-10T19:42:59.658Z,3104.00
2018-09-10T19:43:59.698Z,3072.00
2018-09-10T19:44:59.859Z,3044.00
2018-09-10T19:45:59.717Z,3012.00
2018-09-10T19:46:59.736Z,2968.00
2018-09-10T19:47:59.751Z,2936.00
2018-09-10T19:48:59.754Z,2892.00
2018-09-10T19:49:59.879Z,2860.00
2018-09-10T19:50:59.827Z,2840.00
2018-09-10T19:51:59.817Z,2808.00
2018-09-10T19:52:59.832Z,2768.00
2018-09-10T19:53:59.839Z,2728.00
2018-09-10T19:54:59.997Z,2696.00
2018-09-10T19:55:59.885Z,2652.00
2018-09-10T19:56:59.885Z,2612.00
2018-09-10T19:57:59.887Z,2576.00
2018-09-10T19:58:59.920Z,2532.00
2018-09-10T20:00:00.036Z,2488.00
2018-09-10T20:00:59.934Z,2444.00
2018-09-10T20:01:59.965Z,2404.00
2018-09-10T20:02:59.967Z,2372.00
2018-09-10T20:04:00.000Z,2328.00
2018-09-10T20:05:00.102Z,2308.00
2018-09-10T20:06:00.007Z,2272.00
2018-09-10T20:07:00.042Z,2240.00
2018-09-10T20:08:00.039Z,2204.00
2018-09-10T20:09:00.062Z,2164.00
2018-09-10T20:10:00.235Z,2112.00
2018-09-10T20:11:00.087Z,2072.00
2018-09-10T20:12:00.113Z,2024.00
2018-09-10T20:13:00.138Z,1976.00
2018-09-10T20:14:00.148Z,1928.00
2018-09-10T20:15:00.300Z,1880.00
2018-09-10T20:16:00.163Z,1832.00
2018-09-10T20:17:00.191Z,1788.00
2018-09-10T20:18:00.189Z,1748.00
2018-09-10T20:19:00.225Z,1708.00
2018-09-10T20:20:00.242Z,1660.00
2018-09-10T20:21:00.247Z,1620.00
2018-09-10T20:22:00.323Z,1576.00
2018-09-10T20:23:00.284Z,1536.00
2018-09-10T20:24:00.295Z,1496.00
2018-09-10T20:25:00.310Z,1452.00
2018-09-10T20:26:00.312Z,1408.00
2018-09-10T20:27:00.322Z,1368.00
2018-09-10T20:28:00.356Z,1324.00
2018-09-10T20:29:00.369Z,1276.00
2018-09-10T20:30:00.375Z,1236.00
2018-09-10T20:31:00.385Z,1192.00
2018-09-10T20:32:00.399Z,1148.00
2018-09-10T20:33:00.419Z,1104.00
2018-09-10T20:34:00.429Z,1064.00
2018-09-10T20:35:00.458Z,1016.00
2018-09-10T20:36:00.471Z,972.00
2018-09-10T20:37:00.472Z,928.00
2018-09-10T20:38:00.498Z,880.00
2018-09-10T20:39:00.519Z,836.00
2018-09-10T20:40:00.516Z,792.00
2018-09-10T20:41:00.543Z,752.00
2018-09-10T20:42:00.541Z,708.00
2018-09-10T20:43:00.628Z,664.00
2018-09-10T20:44:00.588Z,624.00
2018-09-10T20:45:00.603Z,584.00
2018-09-10T20:46:00.718Z,540.00
2018-09-10T20:47:00.631Z,504.00
2018-09-10T20:48:00.646Z,464.00
2018-09-10T20:49:00.645Z,424.00
2018-09-10T20:50:00.674Z,384.00
2018-09-10T20:51:00.826Z,348.00
2018-09-10T20:52:00.710Z,320.00
2018-09-10T20:53:00.716Z,288.00
2018-09-10T20:54:00.712Z,260.00
2018-09-10T20:55:00.728Z,236.00
2018-09-10T20:56:01.003Z,212.00
2018-09-10T20:57:00.776Z,184.00
2018-09-10T20:58:00.789Z,164.00
2018-09-10T20:59:00.794Z,144.00
2018-09-10T21:00:00.814Z,120.00
2018-09-10T21:01:00.925Z,108.00
2018-09-10T21:02:00.822Z,92.00
2018-09-10T21:03:00.854Z,76.00
2018-09-10T21:04:00.907Z,68.00
2018-09-10T21:05:01.087Z,56.00
2018-09-10T21:06:00.986Z,44.00
2018-09-10T21:07:00.917Z,36.00
2018-09-10T21:08:00.911Z,28.00
2018-09-10T21:09:00.938Z,24.00
2018-09-10T21:10:00.941Z,24.00
2018-09-10T21:11:01.105Z,32.00
2018-09-10T21:12:00.968Z,32.00
2018-09-10T21:13:00.979Z,28.00
2018-09-10T21:14:01.008Z,28.00
2018-09-10T21:15:01.023Z,28.00
2018-09-10T21:16:01.185Z,24.00
2018-09-10T21:17:01.032Z,24.00
2018-09-10T21:18:01.047Z,24.00
2018-09-10T21:19:01.077Z,20.00
2018-09-10T21:20:01.089Z,24.00
2018-09-10T21:21:01.239Z,24.00
2018-09-10T21:22:01.113Z,24.00
2018-09-10T21:23:01.126Z,24.00
2018-09-10T21:24:01.127Z,24.00
2018-09-10T21:25:01.158Z,24.00
2018-09-10T21:26:01.318Z,24.00
2018-09-10T21:27:01.179Z,24.00
2018-09-10T21:28:01.197Z,24.00
2018-09-10T21:29:01.219Z,24.00
2018-09-10T21:30:01.208Z,24.00
2018-09-10T21:31:01.239Z,24.00
2018-09-10T21:32:01.401Z,24.00
2018-09-10T21:33:01.280Z,24.00
2018-09-10T21:34:01.276Z,24.00
2018-09-10T21:35:01.281Z,24.00
2018-09-10T21:36:01.302Z,24.00
2018-09-10T21:37:01.318Z,24.00
2018-09-10T21:38:01.330Z,24.00
2018-09-10T21:39:01.327Z,24.00
2018-09-10T21:40:01.360Z,20.00
2018-09-10T21:41:01.352Z,24.00
2018-09-10T21:42:01.534Z,24.00
2018-09-10T21:43:01.383Z,24.00
2018-09-10T21:44:01.412Z,24.00
2018-09-10T21:45:01.411Z,24.00
2018-09-10T21:46:01.420Z,20.00
2018-09-10T21:47:01.666Z,20.00
2018-09-10T21:48:01.465Z,20.00
2018-09-10T21:49:01.467Z,24.00
2018-09-10T21:50:01.484Z,20.00
2018-09-10T21:51:01.505Z,20.00
2018-09-10T21:52:01.652Z,20.00
2018-09-10T21:53:01.529Z,20.00
2018-09-10T21:54:01.543Z,20.00
2018-09-10T21:55:01.548Z,20.00
2018-09-10T21:56:01.576Z,20.00
2018-09-10T21:57:01.566Z,20.00
2018-09-10T21:58:01.592Z,24.00
2018-09-10T21:59:01.600Z,24.00
2018-09-10T22:00:01.608Z,24.00
2018-09-10T22:01:01.624Z,24.00
2018-09-10T22:02:01.789Z,24.00
2018-09-10T22:03:01.667Z,24.00
2018-09-10T22:04:01.666Z,24.00
2018-09-10T22:05:01.681Z,24.00
2018-09-10T22:06:01.702Z,24.00
2018-09-10T22:07:01.808Z,24.00
2018-09-10T22:08:01.732Z,24.00
2018-09-10T22:09:01.730Z,24.00
2018-09-10T22:10:01.765Z,24.00
2018-09-10T22:11:01.762Z,24.00
2018-09-10T22:12:01.777Z,24.00
2018-09-10T22:13:01.789Z,24.00
2018-09-10T22:14:01.799Z,24.00
2018-09-10T22:15:01.822Z,24.00
2018-09-10T22:16:01.857Z,20.00
2018-09-10T22:17:01.949Z,20.00
2018-09-10T22:18:01.859Z,24.00
2018-09-10T22:19:01.877Z,24.00
2018-09-10T22:20:01.880Z,24.00
2018-09-10T22:21:01.905Z,24.00
2018-09-10T22:22:02.001Z,24.00
2018-09-10T22:23:01.933Z,20.00
2018-09-10T22:24:01.938Z,20.00
2018-09-10T22:25:01.941Z,20.00
2018-09-10T22:26:01.968Z,20.00
2018-09-10T22:27:02.131Z,24.00
2018-09-10T22:28:01.996Z,24.00
2018-09-10T22:29:02.012Z,20.00
2018-09-10T22:30:02.008Z,24.00
2018-09-10T22:31:02.022Z,20.00
2018-09-10T22:32:02.232Z,20.00
2018-09-10T22:33:02.050Z,20.00
2018-09-10T22:34:02.060Z,20.00
2018-09-10T22:35:02.086Z,20.00
2018-09-10T22:36:02.100Z,20.00
2018-09-10T22:37:02.115Z,24.00
2018-09-10T22:38:02.128Z,20.00
2018-09-10T22:39:02.124Z,20.00
2018-09-10T22:40:02.150Z,20.00
2018-09-10T22:41:02.148Z,24.00
2018-09-10T22:42:02.178Z,24.00
2018-09-10T22:43:02.328Z,20.00
2018-09-10T22:44:02.191Z,20.00
2018-09-10T22:45:02.667Z,20.00
2018-09-10T22:46:02.231Z,20.00
2018-09-10T22:47:02.233Z,20.00
2018-09-10T22:48:02.359Z,20.00
2018-09-10T22:49:02.273Z,20.00
2018-09-10T22:50:02.281Z,20.00
2018-09-10T22:51:02.299Z,20.00
2018-09-10T22:52:02.297Z,20.00
2018-09-10T22:53:02.474Z,20.00
2018-09-10T22:54:02.333Z,20.00
2018-09-10T22:55:02.352Z,20.00
2018-09-10T22:56:02.363Z,20.00
2018-09-10T22:57:02.375Z,20.00
2018-09-10T22:58:02.523Z,20.00
2018-09-10T22:59:02.391Z,20.00
2018-09-10T23:00:02.401Z,20.00
2018-09-10T23:01:02.415Z,20.00
2018-09-10T23:02:02.438Z,20.00
2018-09-10T23:03:02.590Z,20.00
2018-09-10T23:04:02.460Z,20.00
2018-09-10T23:05:02.472Z,20.00
2018-09-10T23:06:02.479Z,20.00
2018-09-10T23:07:02.503Z,20.00
2018-09-10T23:08:02.666Z,20.00
2018-09-10T23:09:02.519Z,20.00
2018-09-10T23:10:02.530Z,24.00
2018-09-10T23:11:02.556Z,24.00
2018-09-10T23:12:02.563Z,24.00
2018-09-10T23:13:02.673Z,24.00
2018-09-10T23:14:02.609Z,24.00
2018-09-10T23:15:02.600Z,24.00
2018-09-10T23:16:02.613Z,24.00
2018-09-10T23:17:02.641Z,24.00
2018-09-10T23:18:02.790Z,24.00
2018-09-10T23:19:02.665Z,24.00
2018-09-10T23:20:02.678Z,24.00
2018-09-10T23:21:02.684Z,24.00
2018-09-10T23:22:02.704Z,24.00
2018-09-10T23:23:02.809Z,24.00
2018-09-10T23:24:02.731Z,24.00
2018-09-10T23:25:02.807Z,24.00
2018-09-10T23:26:02.759Z,24.00
2018-09-10T23:27:02.805Z,24.00
2018-09-10T23:28:02.868Z,24.00
2018-09-10T23:29:02.797Z,24.00
2018-09-10T23:30:02.794Z,24.00
2018-09-10T23:31:02.819Z,24.00
2018-09-10T23:32:02.832Z,20.00
2018-09-10T23:33:02.942Z,20.00
2018-09-10T23:34:02.847Z,24.00
2018-09-10T23:35:02.862Z,24.00
2018-09-10T23:36:02.880Z,24.00
2018-09-10T23:37:02.906Z,24.00
2018-09-10T23:38:03.070Z,24.00
2018-09-10T23:39:02.927Z,20.00
2018-09-10T23:40:02.929Z,20.00
2018-09-10T23:41:02.961Z,20.00
2018-09-10T23:42:02.966Z,20.00
2018-09-10T23:43:02.980Z,20.00
2018-09-10T23:44:02.992Z,20.00
2018-09-10T23:45:03.008Z,20.00
2018-09-10T23:46:03.002Z,20.00
2018-09-10T23:47:03.426Z,20.00
2018-09-10T23:48:03.143Z,20.00
2018-09-10T23:49:03.056Z,20.00
2018-09-10T23:50:03.057Z,24.00
2018-09-10T23:51:03.076Z,20.00
2018-09-10T23:52:03.083Z,20.00
2018-09-10T23:53:03.259Z,24.00
2018-09-10T23:54:03.107Z,24.00
2018-09-10T23:55:03.139Z,24.00
2018-09-10T23:56:03.135Z,24.00
2018-09-10T23:57:03.149Z,24.00
2018-09-10T23:58:03.162Z,24.00
2018-09-10T23:59:03.177Z,24.00
